Time;durP1;ratioP1;P1;durP2;ratioP2;P2;SDS_P1;SDS_P2;PMS_P1;PMS_P2;Temp;Humidity;BMP_temperature;BMP_pressure;BME280_temperature;BME280_humidity;BME280_pressure;Samples;Min_cycle;Max_cycle;Signal;HPM_P1;HPM_P2
2021/11/03 00:02:11;;;;;;;3.90;2.00;;;7.70;86.20;;;7.99;64.77;96218.50;4969871;28;20052;-47
2021/11/03 00:04:40;;;;;;;2.07;1.40;;;7.80;86.20;;;8.03;64.35;96216.31;4967509;28;20069;-45
2021/11/03 00:07:13;;;;;;;3.33;2.27;;;7.70;86.10;;;8.04;64.80;96215.31;4969143;28;20057;-48
2021/11/03 00:09:41;;;;;;;11.03;3.33;;;7.70;86.10;;;8.10;64.56;96211.94;4968785;28;20065;-46
2021/11/03 00:12:15;;;;;;;3.63;1.70;;;7.80;85.80;;;8.11;64.62;96220.72;4969408;28;20054;-46
2021/11/03 00:14:42;;;;;;;3.88;1.73;;;7.90;85.70;;;8.13;64.60;96221.38;4969612;28;20070;-48
2021/11/03 00:17:10;;;;;;;2.27;1.40;;;7.90;85.20;;;8.16;64.77;96218.34;4970295;28;20069;-46
2021/11/03 00:19:38;;;;;;;2.60;1.47;;;7.90;85.10;;;8.15;64.43;96228.13;4968485;28;20063;-46
2021/11/03 00:22:06;;;;;;;3.23;2.63;;;7.90;85.40;;;8.18;64.48;96232.22;4970580;28;20055;-46
2021/11/03 00:24:34;;;;;;;3.40;1.60;;;7.90;85.30;;;8.21;64.44;96231.88;4968766;28;20203;-45
2021/11/03 00:27:03;;;;;;;2.70;1.53;;;8.00;85.00;;;8.22;64.51;96238.81;4969592;28;20590;-47
2021/11/03 00:29:30;;;;;;;5.67;1.70;;;7.90;85.00;;;8.21;64.18;96245.16;4970391;28;20057;-45
2021/11/03 00:31:59;;;;;;;4.33;1.90;;;7.90;85.00;;;8.18;64.18;96243.69;4968767;28;20055;-49
2021/11/03 00:34:27;;;;;;;2.40;1.87;;;7.80;85.10;;;8.17;64.40;96231.41;4970287;28;20047;-46
2021/11/03 00:36:57;;;;;;;4.43;2.00;;;7.80;85.30;;;8.18;64.47;96226.94;4969625;28;20334;-47
2021/11/03 00:39:26;;;;;;;2.60;1.83;;;7.80;85.50;;;8.19;64.37;96212.69;4969580;28;20264;-47
2021/11/03 00:41:55;;;;;;;2.23;1.70;;;7.90;85.50;;;8.21;64.35;96205.38;4968573;28;20053;-46
2021/11/03 00:44:23;;;;;;;2.67;1.73;;;7.90;85.50;;;8.25;64.40;96204.00;4968835;28;20069;-46
2021/11/03 00:46:51;;;;;;;2.13;1.60;;;8.00;85.40;;;8.29;64.52;96192.03;4968627;28;20065;-48
2021/11/03 00:49:19;;;;;;;3.20;1.77;;;8.00;85.20;;;8.33;64.45;96192.50;4968092;28;20080;-46
2021/11/03 00:51:48;;;;;;;2.53;1.63;;;8.10;85.00;;;8.35;64.26;96195.78;4967234;28;20235;-45
2021/11/03 00:54:17;;;;;;;3.17;1.80;;;8.10;84.70;;;8.38;64.34;96196.25;4967211;28;20487;-46
2021/11/03 00:56:49;;;;;;;2.50;1.70;;;8.20;84.70;;;8.40;64.34;96188.94;4967912;28;20068;-46
2021/11/03 00:59:18;;;;;;;3.63;2.10;;;8.20;84.40;;;8.44;64.21;96186.75;4968428;28;20061;-46
2021/11/03 01:01:48;;;;;;;4.30;2.37;;;8.20;84.60;;;8.44;64.30;96181.47;4966406;28;20066;-45
2021/11/03 01:04:16;;;;;;;2.83;1.90;;;8.20;84.60;;;8.46;64.17;96176.78;4968753;28;20054;-47
2021/11/03 01:06:45;;;;;;;3.10;2.07;;;8.20;85.50;;;8.47;64.28;96168.66;4965784;28;20069;-47
2021/11/03 01:09:14;;;;;;;3.07;1.60;;;8.20;84.60;;;8.46;64.26;96152.94;4968821;28;20179;-46
2021/11/03 01:11:42;;;;;;;3.90;1.70;;;8.20;84.90;;;8.46;64.30;96148.44;4969195;28;20050;-47
2021/11/03 01:14:11;;;;;;;3.30;1.90;;;8.20;85.00;;;8.47;64.41;96143.94;4967713;28;20051;-47
2021/11/03 01:16:39;;;;;;;2.90;2.30;;;8.20;85.20;;;8.48;64.53;96145.59;4969427;28;20063;-46
2021/11/03 01:19:08;;;;;;;5.60;3.00;;;8.20;85.30;;;8.46;64.50;96140.47;4967969;28;20058;-49
2021/11/03 01:21:38;;;;;;;5.07;2.20;;;8.20;85.50;;;8.48;64.24;96142.94;4969383;28;20118;-48
2021/11/03 01:24:07;;;;;;;3.33;1.97;;;8.20;85.30;;;8.44;64.50;96144.34;4968239;28;20257;-46
2021/11/03 01:26:35;;;;;;;2.97;1.67;;;8.20;85.20;;;8.44;64.52;96149.63;4968479;28;20077;-46
2021/11/03 01:29:05;;;;;;;2.57;1.70;;;8.20;84.90;;;8.43;64.29;96142.69;4967871;28;20057;-46
2021/11/03 01:31:34;;;;;;;4.70;1.63;;;8.20;84.50;;;8.44;64.43;96139.84;4969429;28;20059;-46
2021/11/03 01:34:04;;;;;;;2.50;1.80;;;8.30;84.60;;;8.46;64.31;96127.22;4967534;28;20047;-46
2021/11/03 01:36:33;;;;;;;4.37;2.00;;;8.30;84.40;;;8.44;64.32;96129.22;4966490;28;20055;-45
2021/11/03 01:39:06;;;;;;;6.70;1.97;;;8.20;84.60;;;8.37;64.24;96130.13;4969127;28;20053;-48
2021/11/03 01:41:36;;;;;;;3.63;2.17;;;8.20;84.40;;;8.37;64.34;96140.72;4952967;28;20065;-47
2021/11/03 01:44:17;;;;;;;3.03;1.90;;;8.20;84.30;;;8.36;64.29;96142.56;4967107;28;20791;-47
2021/11/03 01:46:56;;;;;;;3.07;2.27;;;8.30;84.30;;;8.26;64.73;96139.38;4965944;28;20061;-45
2021/11/03 01:49:30;;;;;;;2.83;2.07;;;8.20;84.20;;;8.25;64.58;96140.38;4966110;28;20363;-46
2021/11/03 01:52:17;;;;;;;3.90;2.27;;;8.10;84.70;;;8.26;64.76;96134.91;4966414;28;20264;-46
2021/11/03 01:54:55;;;;;;;3.37;2.13;;;8.20;85.20;;;8.28;64.59;96145.31;4968237;28;20068;-45
2021/11/03 01:57:35;;;;;;;4.00;2.20;;;8.20;85.20;;;8.26;64.69;96145.50;4966742;28;20260;-46
2021/11/03 02:00:14;;;;;;;3.80;2.30;;;8.10;85.50;;;8.26;64.82;96148.16;4967712;28;20050;-47
2021/11/03 02:02:45;;;;;;;3.63;2.80;;;8.00;85.70;;;8.26;64.76;96148.16;4967948;28;20062;-45
2021/11/03 02:05:18;;;;;;;2.93;2.00;;;8.00;86.40;;;8.24;64.90;96155.47;4968655;28;20450;-47
2021/11/03 02:07:51;;;;;;;4.00;1.90;;;8.00;86.60;;;8.21;64.84;96145.22;4966681;28;20062;-46
2021/11/03 02:10:19;;;;;;;3.27;2.57;;;7.90;87.20;;;8.17;65.24;96145.78;4966670;28;20384;-50
2021/11/03 02:12:49;;;;;;;2.73;2.07;;;7.90;87.30;;;8.20;65.21;96132.97;4965901;28;20238;-49
2021/11/03 02:15:18;;;;;;;3.17;2.17;;;8.00;87.30;;;8.20;65.38;96127.69;4966864;28;20050;-45
2021/11/03 02:17:51;;;;;;;2.97;1.90;;;8.10;87.30;;;8.24;65.46;96123.66;4967240;28;20058;-49
2021/11/03 02:20:24;;;;;;;2.97;1.90;;;8.10;87.40;;;8.25;65.27;96119.97;4966966;28;20062;-47
2021/11/03 02:23:10;;;;;;;3.77;2.40;;;8.00;87.70;;;8.29;65.44;96112.47;4968310;28;20051;-46
2021/11/03 02:25:51;;;;;;;2.90;2.10;;;8.10;88.90;;;8.34;65.45;96112.75;4966317;28;20253;-47
2021/11/03 02:28:23;;;;;;;3.77;1.90;;;8.10;88.30;;;8.36;65.73;96100.13;4966533;28;20060;-46
2021/11/03 02:30:51;;;;;;;3.03;2.03;;;8.10;88.20;;;8.37;65.47;96096.47;4964753;28;20261;-45
2021/11/03 02:33:23;;;;;;;3.10;1.83;;;8.10;88.30;;;8.37;65.53;96090.34;4964468;28;20055;-47
2021/11/03 02:36:05;;;;;;;2.60;1.70;;;8.10;88.70;;;8.38;65.58;96092.81;4965841;28;20081;-47
2021/11/03 02:38:41;;;;;;;2.10;1.43;;;8.10;89.10;;;8.40;65.56;96097.94;4966059;28;20064;-46
2021/11/03 02:41:22;;;;;;;1.70;1.40;;;8.20;89.10;;;8.38;65.38;96102.63;4966325;28;20376;-47
2021/11/03 02:44:03;;;;;;;3.07;2.10;;;8.10;89.40;;;8.38;65.50;96090.16;4966667;28;20346;-46
2021/11/03 02:46:31;;;;;;;2.10;1.60;;;8.10;89.70;;;8.40;65.94;96090.00;4966237;28;20062;-48
2021/11/03 02:48:58;;;;;;;5.10;2.37;;;8.10;90.10;;;8.41;65.78;96094.28;4965309;28;20081;-47
2021/11/03 02:51:40;;;;;;;3.67;2.07;;;8.00;89.30;;;8.40;65.94;96093.47;4966711;28;20050;-50
2021/11/03 02:54:13;;;;;;;3.10;2.83;;;8.10;89.70;;;8.38;65.82;96094.66;4966696;28;20233;-46
2021/11/03 02:56:50;;;;;;;4.07;1.80;;;8.10;90.00;;;8.38;65.81;96089.34;4964778;28;20503;-45
2021/11/03 02:59:22;;;;;;;3.03;1.90;;;8.10;89.90;;;8.35;65.99;96093.19;4966277;28;20046;-46
2021/11/03 03:01:56;;;;;;;3.67;2.00;;;8.10;90.10;;;8.36;66.08;96091.38;4965085;28;20054;-46
2021/11/03 03:04:33;;;;;;;2.83;1.83;;;8.00;90.20;;;8.35;66.02;96089.72;4965649;28;20085;-45
2021/11/03 03:07:05;;;;;;;3.03;2.20;;;8.10;90.60;;;8.36;66.11;96083.41;4964962;28;20062;-46
2021/11/03 03:09:34;;;;;;;3.93;2.40;;;8.10;90.40;;;8.37;66.15;96088.50;4964696;28;20265;-49
2021/11/03 03:12:05;;;;;;;3.87;2.10;;;8.00;90.70;;;8.36;66.33;96078.13;4966566;28;20065;-47
2021/11/03 03:14:41;;;;;;;6.10;2.20;;;8.00;91.00;;;8.39;66.22;96081.19;4964951;28;20046;-49
2021/11/03 03:17:13;;;;;;;5.57;3.53;;;8.10;90.90;;;8.45;66.28;96074.34;4964889;28;20054;-50
2021/11/03 03:19:43;;;;;;;3.83;2.70;;;8.10;90.70;;;8.45;66.17;96067.25;4965719;28;20425;-47
2021/11/03 03:22:14;;;;;;;4.63;3.67;;;8.20;90.90;;;8.45;66.23;96059.28;4964914;28;20059;-47
2021/11/03 03:24:45;;;;;;;5.80;3.67;;;8.20;91.20;;;8.44;66.29;96068.25;4963478;28;20065;-47
2021/11/03 03:27:14;;;;;;;6.67;3.17;;;8.20;91.40;;;8.42;66.21;96070.25;4966537;28;20050;-48
2021/11/03 03:29:43;;;;;;;10.80;2.70;;;8.10;91.50;;;8.41;66.39;96063.31;4965047;28;20062;-48
2021/11/03 03:32:12;;;;;;;3.80;2.33;;;8.10;91.80;;;8.43;66.50;96066.59;4966446;28;20069;-47
2021/11/03 03:34:40;;;;;;;4.93;2.80;;;8.20;91.60;;;8.43;66.53;96071.06;4966486;28;20051;-48
2021/11/03 03:37:09;;;;;;;3.23;2.20;;;8.20;91.50;;;8.41;66.23;96073.94;4965395;28;20646;-48
2021/11/03 03:39:39;;;;;;;3.57;2.53;;;8.20;91.20;;;8.42;66.57;96074.75;4965333;28;20054;-45
2021/11/03 03:42:14;;;;;;;2.53;2.10;;;8.20;91.30;;;8.44;66.48;96078.03;4964780;28;20051;-47
2021/11/03 03:44:45;;;;;;;2.83;1.90;;;8.10;91.40;;;8.43;66.49;96079.03;4963860;28;20069;-46
2021/11/03 03:47:14;;;;;;;2.57;2.10;;;8.10;91.50;;;8.41;66.57;96070.41;4963597;28;20055;-48
2021/11/03 03:49:43;;;;;;;2.57;1.90;;;8.10;91.40;;;8.42;66.61;96074.75;4964089;28;20069;-47
2021/11/03 03:52:14;;;;;;;2.80;2.13;;;8.10;91.00;;;8.42;66.64;96066.78;4966773;28;20058;-45
2021/11/03 03:54:44;;;;;;;3.47;2.17;;;8.20;91.30;;;8.44;66.46;96078.84;4963345;28;20375;-46
2021/11/03 03:57:12;;;;;;;2.57;1.97;;;8.20;90.90;;;8.44;66.51;96070.06;4964449;28;20357;-48
2021/11/03 03:59:40;;;;;;;2.33;1.73;;;8.20;90.80;;;8.45;66.45;96066.41;4965772;28;20057;-49
2021/11/03 04:02:08;;;;;;;4.27;2.03;;;8.20;90.90;;;8.44;66.55;96068.25;4966012;28;20218;-45
2021/11/03 04:04:37;;;;;;;4.17;2.53;;;8.20;91.00;;;8.46;66.61;96057.44;4965681;28;20062;-47
2021/11/03 04:07:05;;;;;;;3.77;1.80;;;8.20;91.20;;;8.42;66.55;96064.13;4965593;28;20312;-46
2021/11/03 04:09:34;;;;;;;4.30;2.10;;;8.20;90.70;;;8.43;66.44;96057.81;4964807;28;20043;-46
2021/11/03 04:12:02;;;;;;;3.10;1.70;;;8.30;90.70;;;8.45;66.63;96053.97;4966603;28;20253;-47
2021/11/03 04:14:30;;;;;;;2.93;1.90;;;8.30;90.60;;;8.48;66.64;96064.19;4963855;28;20057;-46
2021/11/03 04:16:58;;;;;;;3.70;2.17;;;8.30;90.50;;;8.47;66.47;96065.22;4964263;28;20051;-46
2021/11/03 04:19:26;;;;;;;3.73;1.93;;;8.30;90.60;;;8.50;66.35;96063.22;4962803;28;20065;-47
2021/11/03 04:21:57;;;;;;;3.13;2.00;;;8.30;90.60;;;8.51;66.47;96059.53;4964283;28;20062;-47
2021/11/03 04:24:34;;;;;;;3.07;2.20;;;8.30;90.70;;;8.49;66.55;96057.06;4964968;28;20058;-48
2021/11/03 04:27:02;;;;;;;2.80;2.40;;;8.30;90.60;;;8.49;66.48;96051.75;4964688;28;20054;-46
2021/11/03 04:29:30;;;;;;;3.97;2.10;;;8.20;90.70;;;8.50;66.55;96053.41;4963159;28;20055;-46
2021/11/03 04:31:58;;;;;;;2.73;2.10;;;8.20;91.50;;;8.51;66.42;96051.56;4964747;28;20086;-47
2021/11/03 04:34:28;;;;;;;3.73;2.17;;;8.20;90.80;;;8.51;66.39;96044.47;4964676;28;20058;-46
2021/11/03 04:37:01;;;;;;;4.22;2.00;;;8.30;90.90;;;8.49;66.65;96038.50;4966831;28;20054;-46
2021/11/03 04:39:30;;;;;;;4.20;2.03;;;8.30;90.70;;;8.51;66.57;96039.16;4969659;28;20043;-45
2021/11/03 04:41:58;;;;;;;3.80;2.10;;;8.30;90.80;;;8.52;66.45;96035.47;4968184;28;20269;-49
2021/11/03 04:44:26;;;;;;;3.87;2.10;;;8.30;90.80;;;8.55;66.56;96023.66;4967804;28;20527;-45
2021/11/03 04:46:55;;;;;;;3.07;1.97;;;8.30;90.70;;;8.55;66.51;96027.16;4968718;28;20265;-46
2021/11/03 04:49:28;;;;;;;3.73;2.43;;;8.30;91.00;;;8.55;66.39;96029.81;4967075;28;20054;-46
2021/11/03 04:51:59;;;;;;;3.33;2.30;;;8.30;90.80;;;8.54;66.47;96019.38;4969470;28;20374;-49
2021/11/03 04:54:29;;;;;;;4.87;3.27;;;8.30;90.60;;;8.53;66.45;96018.56;4953349;28;20051;-46
2021/11/03 04:56:58;;;;;;;3.67;2.50;;;8.30;90.30;;;8.56;66.38;96012.06;4967266;28;20415;-47
2021/11/03 04:59:26;;;;;;;1.90;1.63;;;8.30;90.20;;;8.59;66.46;96011.69;4967850;28;20357;-46
2021/11/03 05:01:56;;;;;;;3.63;2.10;;;8.40;90.20;;;8.58;66.35;96002.06;4967695;28;20744;-47
2021/11/03 05:04:26;;;;;;;5.13;3.13;;;8.30;90.40;;;8.59;66.27;95998.44;4967341;28;20387;-47
2021/11/03 05:06:54;;;;;;;4.13;3.20;;;8.40;90.30;;;8.56;66.39;96001.44;4968906;28;20517;-46
2021/11/03 05:09:22;;;;;;;2.80;2.17;;;8.30;90.30;;;8.55;66.32;95997.97;4966926;28;20050;-48
2021/11/03 05:11:52;;;;;;;2.70;2.23;;;8.30;90.70;;;8.58;66.42;95994.13;4968372;28;20054;-46
2021/11/03 05:14:20;;;;;;;5.93;2.60;;;8.30;90.80;;;8.58;66.35;95994.13;4967300;28;20059;-46
2021/11/03 05:16:52;;;;;;;3.53;2.50;;;8.30;90.80;;;8.58;66.52;95980.84;4967334;28;20050;-46
2021/11/03 05:19:26;;;;;;;3.50;2.67;;;8.30;90.90;;;8.57;66.47;95984.50;4966671;28;20063;-46
2021/11/03 05:22:01;;;;;;;3.27;2.20;;;8.30;90.70;;;8.57;66.46;95977.41;4966452;28;20054;-46
2021/11/03 05:24:30;;;;;;;3.37;2.10;;;8.30;90.60;;;8.54;66.29;95972.44;4966370;28;20054;-49
2021/11/03 05:26:58;;;;;;;4.73;4.00;;;8.20;90.40;;;8.53;66.49;95970.81;4967014;28;20501;-49
2021/11/03 05:29:26;;;;;;;4.20;2.50;;;8.20;90.60;;;8.49;66.71;95969.53;4966555;28;20054;-48
2021/11/03 05:31:54;;;;;;;4.67;2.87;;;8.20;90.50;;;8.52;66.44;95971.00;4966752;28;20065;-50
2021/11/03 05:34:22;;;;;;;3.47;2.37;;;8.30;90.50;;;8.54;66.42;95966.34;4966973;28;20061;-47
2021/11/03 05:36:51;;;;;;;3.20;1.97;;;8.30;90.20;;;8.57;66.43;95957.97;4967627;28;20242;-46
2021/11/03 05:39:19;;;;;;;5.43;2.60;;;8.30;90.20;;;8.58;66.43;95962.28;4967539;28;20077;-46
2021/11/03 05:41:47;;;;;;;3.70;2.67;;;8.30;91.20;;;8.61;66.27;95964.56;4967737;28;20238;-47
2021/11/03 05:44:18;;;;;;;3.10;2.40;;;8.30;90.40;;;8.62;66.35;95966.19;4967727;28;20062;-46
2021/11/03 05:46:54;;;;;;;5.00;2.40;;;8.30;90.40;;;8.61;66.27;95959.28;4967803;28;20061;-48
2021/11/03 05:49:30;;;;;;;2.93;2.17;;;8.30;90.30;;;8.59;66.43;95950.69;4969389;28;20038;-47
2021/11/03 05:52:00;;;;;;;3.23;2.30;;;8.30;90.50;;;8.59;66.54;95943.53;4968139;28;20047;-47
2021/11/03 05:54:29;;;;;;;3.50;2.13;;;8.30;90.10;;;8.62;66.28;95945.78;4967316;28;20058;-46
2021/11/03 05:57:04;;;;;;;2.63;1.80;;;8.40;90.10;;;8.64;66.43;95941.13;4968223;28;20065;-47
2021/11/03 05:59:35;;;;;;;3.40;2.03;;;8.40;89.70;;;8.66;66.34;95932.97;4966622;28;20572;-46
2021/11/03 06:02:03;;;;;;;3.00;1.80;;;8.40;90.60;;;8.67;66.34;95932.78;4968116;28;20051;-47
2021/11/03 06:04:31;;;;;;;2.77;1.90;;;8.40;89.80;;;8.69;66.23;95935.25;4967967;28;20224;-46
2021/11/03 06:06:59;;;;;;;2.90;1.80;;;8.40;89.70;;;8.71;66.27;95925.28;4967505;28;20060;-49
2021/11/03 06:09:26;;;;;;;2.67;1.97;;;8.50;90.60;;;8.71;66.40;95922.63;4966859;28;20054;-49
2021/11/03 06:11:54;;;;;;;2.77;1.53;;;8.40;89.80;;;8.71;66.26;95912.00;4966313;28;20260;-47
2021/11/03 06:14:22;;;;;;;3.70;2.30;;;8.40;90.20;;;8.72;66.45;95912.81;4967647;28;20586;-46
2021/11/03 06:16:50;;;;;;;4.10;2.23;;;8.50;90.40;;;8.74;66.45;95913.44;4966365;28;20051;-47
2021/11/03 06:19:18;;;;;;;6.00;3.27;;;8.40;90.40;;;8.70;66.56;95915.66;4966619;28;20050;-46
2021/11/03 06:21:50;;;;;;;4.47;3.00;;;8.40;90.70;;;8.69;66.47;95908.72;4966773;28;20046;-46
2021/11/03 06:24:19;;;;;;;4.80;2.80;;;8.40;90.90;;;8.68;66.50;95912.38;4966205;28;20363;-48
2021/11/03 06:26:47;;;;;;;5.57;3.70;;;8.40;91.10;;;8.66;66.66;95909.91;4966786;28;20062;-48
2021/11/03 06:29:15;;;;;;;5.20;3.73;;;8.40;91.40;;;8.66;66.55;95911.75;4967027;28;20037;-46
2021/11/03 06:31:42;;;;;;;3.80;3.43;;;8.30;91.60;;;8.61;66.64;95920.28;4968106;28;20372;-47
2021/11/03 06:34:10;;;;;;;3.90;3.27;;;8.30;91.80;;;8.59;66.79;95924.16;4966833;28;20054;-48
2021/11/03 06:36:38;;;;;;;5.13;3.13;;;8.30;92.00;;;8.59;66.78;95937.41;4967982;28;20047;-48
2021/11/03 06:39:08;;;;;;;3.90;3.07;;;8.30;92.20;;;8.58;66.80;95930.47;4966456;28;20058;-46
2021/11/03 06:41:38;;;;;;;5.73;3.77;;;8.30;92.20;;;8.60;66.99;95941.69;4967424;28;20379;-48
2021/11/03 06:44:07;;;;;;;6.60;3.70;;;8.30;92.30;;;8.59;66.93;95946.19;4968273;28;20070;-47
2021/11/03 06:46:36;;;;;;;5.87;3.97;;;8.30;92.30;;;8.59;67.08;95940.06;4967773;28;20055;-46
2021/11/03 06:49:04;;;;;;;5.70;3.77;;;8.30;92.40;;;8.62;67.02;95934.38;4967069;28;20369;-47
2021/11/03 06:51:33;;;;;;;7.03;4.03;;;8.30;92.60;;;8.60;67.11;95925.78;4966378;28;20051;-47
2021/11/03 06:54:01;;;;;;;4.10;2.97;;;8.30;92.50;;;8.62;66.94;95923.75;4967323;28;20076;-49
2021/11/03 06:56:30;;;;;;;2.47;2.10;;;8.30;92.40;;;8.60;66.89;95923.94;4965475;28;20051;-47
2021/11/03 06:58:58;;;;;;;4.20;2.10;;;8.30;92.30;;;8.61;66.94;95930.91;4965073;28;20205;-47
2021/11/03 07:01:26;;;;;;;3.70;1.70;;;8.40;91.50;;;8.64;66.90;95946.41;4964664;28;20047;-46
2021/11/03 07:03:56;;;;;;;3.13;1.77;;;8.40;90.80;;;8.65;66.96;95944.63;4966136;28;20053;-48
2021/11/03 07:06:24;;;;;;;2.93;1.60;;;8.40;90.80;;;8.65;66.66;95947.25;4966930;28;20326;-47
2021/11/03 07:08:54;;;;;;;2.77;2.00;;;8.40;91.00;;;8.66;66.71;95944.41;4964907;28;20681;-48
2021/11/03 07:11:23;;;;;;;4.17;2.27;;;8.40;90.90;;;8.66;66.64;95935.63;4965236;28;20050;-49
2021/11/03 07:13:52;;;;;;;3.60;1.60;;;8.40;90.30;;;8.69;66.40;95929.94;4966597;28;20046;-46
2021/11/03 07:16:20;;;;;;;3.30;1.63;;;8.40;89.70;;;8.74;66.49;95937.31;4965951;28;20253;-50
2021/11/03 07:18:48;;;;;;;2.27;1.50;;;8.60;89.00;;;8.77;66.29;95929.81;4966626;28;20449;-48
2021/11/03 07:21:16;;;;;;;2.43;1.83;;;8.60;88.60;;;8.82;66.14;95931.88;4965831;28;20349;-47
2021/11/03 07:23:44;;;;;;;4.30;1.37;;;8.60;88.40;;;8.81;66.01;95932.91;4966117;28;20249;-49
2021/11/03 07:26:13;;;;;;;3.47;1.53;;;8.70;88.00;;;8.80;65.75;95918.81;4967562;28;20059;-49
2021/11/03 07:28:41;;;;;;;2.80;2.10;;;8.70;87.20;;;8.85;65.75;95915.59;4966354;28;20054;-47
2021/11/03 07:31:10;;;;;;;2.13;1.43;;;8.70;87.30;;;8.87;65.67;95922.31;4967279;28;20329;-47
2021/11/03 07:33:40;;;;;;;4.60;1.70;;;8.70;86.80;;;8.92;65.56;95924.44;4966069;28;20585;-46
2021/11/03 07:36:20;;;;;;;4.50;2.00;;;8.80;86.30;;;8.94;65.40;95922.41;4964475;28;20057;-46
2021/11/03 07:38:50;;;;;;;3.27;1.50;;;8.80;85.70;;;8.96;65.04;95923.03;4966349;28;20050;-48
2021/11/03 07:41:33;;;;;;;3.15;1.70;;;8.90;85.50;;;9.00;65.04;95929.59;4966378;28;20257;-47
2021/11/03 07:44:04;;;;;;;3.53;1.47;;;8.90;85.00;;;9.00;64.76;95934.06;4965654;28;20051;-46
2021/11/03 07:46:33;;;;;;;3.47;2.10;;;9.00;84.90;;;9.01;64.99;95915.28;4965541;28;20353;-46
2021/11/03 07:49:02;;;;;;;4.17;1.77;;;9.00;84.80;;;9.05;64.86;95923.69;4966440;28;20060;-47
2021/11/03 07:51:31;;;;;;;2.27;1.50;;;9.00;84.60;;;9.07;64.56;95916.34;4966169;28;20062;-48
2021/11/03 07:54:00;;;;;;;2.60;1.77;;;9.00;84.40;;;9.11;64.79;95914.97;4963710;28;20051;-46
2021/11/03 07:56:34;;;;;;;3.70;1.70;;;9.10;84.70;;;9.18;64.87;95925.63;4965709;28;20046;-47
2021/11/03 07:59:03;;;;;;;2.93;1.60;;;9.10;84.50;;;9.19;64.75;95933.41;4966181;28;20047;-46
2021/11/03 08:01:31;;;;;;;2.50;1.60;;;9.10;84.50;;;9.18;64.38;95921.13;4966152;28;20433;-47
2021/11/03 08:03:59;;;;;;;4.53;2.13;;;9.10;84.50;;;9.21;64.66;95907.47;4965254;28;20065;-47
2021/11/03 08:06:28;;;;;;;2.40;1.90;;;9.00;84.50;;;9.22;64.73;95918.91;4965959;28;20069;-47
2021/11/03 08:09:05;;;;;;;3.53;2.00;;;9.10;84.30;;;9.23;64.12;95926.69;4965531;28;20050;-47
2021/11/03 08:11:51;;;;;;;2.30;1.90;;;9.10;84.20;;;9.25;64.19;95926.50;4969949;28;20066;-47
2021/11/03 08:14:26;;;;;;;3.60;2.03;;;9.10;84.00;;;9.26;64.61;95922.81;4968829;28;20056;-46
2021/11/03 08:17:02;;;;;;;2.70;2.00;;;9.20;83.80;;;9.27;64.28;95912.00;4967084;28;20493;-45
2021/11/03 08:19:53;;;;;;;3.57;2.30;;;9.20;83.80;;;9.27;64.29;95917.31;4967778;28;20053;-47
2021/11/03 08:22:24;;;;;;;3.87;2.10;;;9.20;83.00;;;9.33;64.38;95923.66;4968414;28;20058;-47
2021/11/03 08:24:55;;;;;;;3.47;2.30;;;9.20;83.80;;;9.35;64.20;95916.31;4970588;28;20069;-48
2021/11/03 08:27:24;;;;;;;5.47;2.50;;;9.20;84.00;;;9.39;64.37;95924.72;4969364;28;20058;-48
2021/11/03 08:29:52;;;;;;;5.67;2.80;;;9.30;84.20;;;9.42;64.22;95927.81;4969813;28;20253;-48
2021/11/03 08:32:28;;;;;;;4.10;2.77;;;9.30;84.30;;;9.42;64.55;95919.84;4970864;28;20407;-47
2021/11/03 08:34:57;;;;;;;4.47;3.40;;;9.30;84.10;;;9.45;64.40;95922.09;4968172;28;20223;-47
2021/11/03 08:37:31;;;;;;;4.00;3.10;;;9.30;84.10;;;9.46;64.24;95933.56;4969569;28;20081;-48
2021/11/03 08:40:02;;;;;;;3.70;2.63;;;9.30;84.20;;;9.46;64.24;95941.53;4970060;28;20057;-47
2021/11/03 08:42:31;;;;;;;4.60;3.00;;;9.30;84.10;;;9.46;64.41;95931.72;4970787;28;20053;-48
2021/11/03 08:44:59;;;;;;;4.07;2.43;;;9.30;84.80;;;9.45;64.62;95930.06;4968577;28;20252;-49
2021/11/03 08:47:27;;;;;;;2.77;2.30;;;9.20;85.20;;;9.45;64.82;95934.56;4968674;28;20059;-47
2021/11/03 08:49:55;;;;;;;3.60;2.43;;;9.20;85.70;;;9.45;64.57;95938.03;4969216;28;20080;-47
2021/11/03 08:52:23;;;;;;;7.67;3.40;;;9.20;85.50;;;9.43;64.91;95928.63;4968212;28;20245;-47
2021/11/03 08:54:51;;;;;;;6.23;3.50;;;9.20;86.30;;;9.44;64.62;95935.56;4969795;28;20050;-47
2021/11/03 08:57:23;;;;;;;4.83;3.50;;;9.20;86.70;;;9.45;64.76;95938.03;4968596;28;20261;-48
2021/11/03 08:59:56;;;;;;;4.07;2.60;;;9.20;86.90;;;9.45;64.67;95943.34;4965342;28;20054;-49
2021/11/03 09:02:24;;;;;;;4.97;3.17;;;9.20;86.20;;;9.43;64.83;95934.75;4966321;28;20387;-46
2021/11/03 09:04:53;;;;;;;4.10;2.80;;;9.10;86.30;;;9.41;64.63;95942.09;4967184;28;20058;-46
2021/11/03 09:07:21;;;;;;;4.83;4.20;;;9.10;87.00;;;9.41;64.94;95946.59;4966047;28;20361;-48
2021/11/03 09:09:49;;;;;;;5.33;3.50;;;9.10;87.30;;;9.38;65.08;95949.63;4967585;28;20058;-48
2021/11/03 09:12:18;;;;;;;5.33;4.07;;;9.00;87.90;;;9.36;65.00;95943.69;4967177;28;20046;-46
2021/11/03 09:14:45;;;;;;;6.13;3.80;;;9.00;88.80;;;9.33;65.75;95946.75;4966848;28;20043;-46
2021/11/03 09:17:14;;;;;;;5.17;4.00;;;9.00;90.20;;;9.33;65.81;95944.91;4966846;28;20057;-46
2021/11/03 09:19:42;;;;;;;5.67;3.87;;;9.00;90.50;;;9.34;65.92;95940.41;4966501;28;20043;-47
2021/11/03 09:22:10;;;;;;;5.47;3.83;;;9.00;90.50;;;9.37;65.80;95935.53;4967739;28;20089;-46
2021/11/03 09:24:39;;;;;;;5.27;4.03;;;9.10;90.50;;;9.39;65.92;95932.69;4967704;28;20055;-46
2021/11/03 09:27:14;;;;;;;4.47;4.03;;;9.10;90.50;;;9.40;65.74;95924.53;4968293;28;20280;-46
2021/11/03 09:29:45;;;;;;;5.13;3.53;;;9.10;90.20;;;9.43;66.09;95923.31;4968131;28;20210;-50
2021/11/03 09:32:19;;;;;;;3.93;3.50;;;9.20;90.00;;;9.48;65.72;95922.72;4966969;28;20081;-47
2021/11/03 09:34:51;;;;;;;4.17;2.57;;;9.20;89.70;;;9.49;65.65;95919.88;4966134;28;20241;-49
2021/11/03 09:37:23;;;;;;;2.73;2.20;;;9.30;88.60;;;9.45;65.44;95918.63;4968832;28;20256;-48
2021/11/03 09:39:54;;;;;;;4.18;2.22;;;9.10;88.20;;;9.45;65.32;95918.63;4969150;28;20054;-47
2021/11/03 09:42:25;;;;;;;4.80;1.93;;;9.10;87.60;;;9.46;64.95;95934.38;4966587;28;20249;-48
2021/11/03 09:44:56;;;;;;;3.80;2.80;;;9.20;87.60;;;9.50;64.90;95945.44;4967173;28;20047;-47
2021/11/03 09:47:33;;;;;;;3.60;1.97;;;9.30;86.20;;;9.51;64.79;95948.91;4967140;28;20065;-46
2021/11/03 09:50:21;;;;;;;4.50;2.70;;;9.20;86.50;;;9.53;65.28;95947.69;4967787;28;20065;-48
2021/11/03 09:52:57;;;;;;;4.60;2.70;;;9.30;87.60;;;9.59;65.19;95946.06;4966681;28;20046;-47
2021/11/03 09:55:27;;;;;;;5.87;3.03;;;9.40;88.10;;;9.59;65.44;95952.19;4966772;28;20054;-47
2021/11/03 09:58:03;;;;;;;5.33;2.70;;;9.30;88.70;;;9.62;65.75;95961.63;4967410;28;20047;-50
2021/11/03 10:00:57;;;;;;;3.10;2.63;;;9.40;88.70;;;9.61;64.99;95944.84;4966493;28;20411;-46
2021/11/03 10:04:00;;;;;;;4.03;2.37;;;9.40;87.30;;;9.69;65.44;95937.75;4965857;28;20055;-48
2021/11/03 10:06:38;;;;;;;4.40;2.50;;;9.40;87.90;;;9.62;64.75;95933.22;4967369;28;20249;-47
2021/11/03 10:09:06;;;;;;;5.70;2.67;;;9.20;85.90;;;9.66;65.11;95928.34;4965025;28;20061;-50
2021/11/03 10:11:45;;;;;;;5.07;3.73;;;9.40;87.50;;;9.76;65.36;95935.94;4969693;28;20411;-46
2021/11/03 10:14:13;;;;;;;3.10;2.07;;;9.50;87.20;;;9.77;64.73;95948.19;4966618;28;20055;-48
2021/11/03 10:16:51;;;;;;;4.23;2.00;;;9.50;86.10;;;9.79;64.69;95952.31;4967396;28;20054;-48
2021/11/03 10:19:29;;;;;;;6.00;2.23;;;9.60;85.70;;;9.84;64.33;95952.53;4966893;28;20046;-48
2021/11/03 10:22:31;;;;;;;3.37;2.20;;;9.70;85.60;;;9.91;64.81;95951.75;4967247;28;20051;-46
2021/11/03 10:25:25;;;;;;;2.83;1.77;;;9.80;85.10;;;9.92;64.40;95954.19;4967632;28;20050;-47
2021/11/03 10:28:01;;;;;;;2.83;1.90;;;9.70;84.80;;;9.89;64.10;95951.13;4967885;28;20066;-46
2021/11/03 10:30:59;;;;;;;4.87;2.40;;;9.70;85.30;;;9.96;64.67;95944.81;4967502;28;20061;-47
2021/11/03 10:33:39;;;;;;;2.67;1.83;;;9.80;85.00;;;10.04;64.61;95943.81;4964480;28;20058;-46
2021/11/03 10:36:23;;;;;;;3.03;2.00;;;9.90;84.20;;;10.05;63.81;95945.47;4966517;28;20508;-49
2021/11/03 10:39:05;;;;;;;4.30;2.20;;;9.90;83.10;;;9.93;63.67;95949.72;4966154;28;20058;-48
2021/11/03 10:41:35;;;;;;;5.03;2.50;;;9.70;84.20;;;9.84;64.84;95952.53;4966436;28;20054;-48
2021/11/03 10:44:05;;;;;;;5.60;2.47;;;9.50;86.80;;;9.82;64.82;95954.56;4965140;28;20047;-47
2021/11/03 10:47:17;;;;;;;4.00;2.63;;;9.50;87.60;;;9.78;64.91;95955.19;4965608;28;20042;-46
2021/11/03 10:50:06;;;;;;;4.17;3.10;;;9.50;89.00;;;9.84;65.09;95970.31;4950211;28;20067;-47
2021/11/03 10:52:47;;;;;;;3.22;2.70;;;9.60;89.40;;;9.89;65.40;95962.59;4968846;28;20047;-50